Time;durP1;ratioP1;P1;durP2;ratioP2;P2;SDS_P1;SDS_P2;PMS_P1;PMS_P2;Temp;Humidity;BMP_temperature;BMP_pressure;BME280_temperature;BME280_humidity;BME280_pressure;Samples;Min_cycle;Max_cycle;Signal;HPM_P1;HPM_P2
2021/06/11 00:02:07;;;;;;;14.18;9.30;;;;;;;21.86;56.38;101890.34;5072102;28;20408;-49
2021/06/11 00:04:36;;;;;;;13.57;8.82;;;;;;;21.84;56.56;101895.38;5072003;28;20090;-49
2021/06/11 00:07:04;;;;;;;14.38;9.15;;;;;;;21.83;56.67;101888.19;5072276;28;20553;-49
2021/06/11 00:09:31;;;;;;;14.35;9.00;;;;;;;21.79;56.69;101899.13;5075483;28;20152;-48
2021/06/11 00:11:59;;;;;;;13.63;8.68;;;;;;;21.75;56.91;101908.41;5075925;28;20045;-52
2021/06/11 00:14:27;;;;;;;12.57;9.13;;;;;;;21.70;57.03;101896.28;5076034;28;20064;-51
2021/06/11 00:16:54;;;;;;;14.25;10.00;;;;;;;21.69;57.28;101894.69;5076092;28;20088;-50
2021/06/11 00:19:22;;;;;;;14.95;10.05;;;;;;;21.65;57.38;101899.22;5075868;28;20554;-50
2021/06/11 00:21:50;;;;;;;15.00;10.02;;;;;;;21.62;57.58;101893.47;5075680;28;20384;-49
2021/06/11 00:24:17;;;;;;;14.20;9.60;;;;;;;21.58;57.78;101896.06;5076001;28;20037;-52
2021/06/11 00:26:45;;;;;;;14.23;9.80;;;;;;;21.56;57.98;101894.75;5076516;28;20056;-50
2021/06/11 00:29:13;;;;;;;16.25;10.27;;;;;;;21.53;58.04;101898.97;5075552;28;20490;-52
2021/06/11 00:31:41;;;;;;;14.82;10.43;;;;;;;21.49;58.09;101900.72;5075750;28;20072;-50
2021/06/11 00:34:08;;;;;;;15.90;9.98;;;;;;;21.46;58.26;101898.59;5075934;28;20044;-50
2021/06/11 00:36:36;;;;;;;13.07;9.95;;;;;;;21.45;58.20;101899.72;5076001;28;20040;-51
2021/06/11 00:39:05;;;;;;;15.85;10.23;;;;;;;21.41;58.15;101893.19;5075529;28;20140;-49
2021/06/11 00:41:32;;;;;;;13.00;10.02;;;;;;;21.39;58.37;101895.41;5075630;28;20083;-49
2021/06/11 00:44:00;;;;;;;14.40;10.43;;;;;;;21.38;58.29;101893.75;5075475;28;20071;-49
2021/06/11 00:46:28;;;;;;;13.07;9.88;;;;;;;21.36;58.48;101890.47;5075324;28;20715;-50
2021/06/11 00:48:56;;;;;;;15.23;10.30;;;;;;;21.35;58.33;101889.66;5075310;28;20060;-51
2021/06/11 00:51:24;;;;;;;17.02;11.07;;;;;;;21.36;58.36;101896.03;5075388;28;20041;-48
2021/06/11 00:53:53;;;;;;;13.88;10.68;;;;;;;21.36;58.25;101896.03;5074931;28;20044;-52
2021/06/11 00:56:21;;;;;;;14.85;11.13;;;;;;;21.37;58.39;101892.13;5075374;28;20044;-52
2021/06/11 00:58:49;;;;;;;16.35;10.65;;;;;;;21.39;58.37;101896.25;5075936;28;20495;-49
2021/06/11 01:01:16;;;;;;;13.85;10.77;;;;;;;21.39;58.16;101892.66;5073815;28;20041;-52
2021/06/11 01:03:45;;;;;;;15.13;10.95;;;;;;;21.35;58.33;101888.84;5075945;28;20037;-52
2021/06/11 01:06:12;;;;;;;16.88;11.13;;;;;;;21.31;58.50;101887.84;5075375;28;20076;-48
2021/06/11 01:08:40;;;;;;;15.75;11.32;;;;;;;21.26;58.76;101880.47;5074449;28;20387;-51
2021/06/11 01:11:11;;;;;;;13.90;10.93;;;;;;;21.21;58.91;101889.75;5073958;28;20748;-49
2021/06/11 01:13:40;;;;;;;15.10;11.27;;;;;;;21.17;59.08;101894.28;5073649;28;20044;-51
2021/06/11 01:16:07;;;;;;;14.32;11.15;;;;;;;21.13;59.19;101893.25;5073351;28;20044;-48
2021/06/11 01:18:35;;;;;;;15.35;10.73;;;;;;;21.11;59.46;101884.44;5075052;28;20045;-52
2021/06/11 01:21:04;;;;;;;15.18;12.10;;;;;;;21.11;59.16;101889.97;5073630;28;20044;-54
2021/06/11 01:23:49;;;;;;;13.73;11.18;;;;;;;21.12;59.21;101888.84;5072734;28;20086;-53
2021/06/11 01:26:23;;;;;;;16.00;11.25;;;;;;;21.14;59.29;101880.22;5062447;28;20047;-52
2021/06/11 01:28:53;;;;;;;18.25;11.20;;;;;;;21.16;59.18;101881.53;5076546;28;20743;-49
2021/06/11 01:31:21;;;;;;;13.18;10.15;;;;;;;21.19;58.96;101875.38;5077707;28;20041;-52
2021/06/11 01:33:57;;;;;;;17.33;10.45;;;;;;;21.22;58.79;101877.50;5074701;28;20045;-50
2021/06/11 01:36:28;;;;;;;14.38;10.57;;;;;;;21.24;58.75;101871.66;5073955;28;20110;-50
2021/06/11 01:38:57;;;;;;;18.83;11.00;;;;;;;21.24;59.04;101874.44;5074183;28;20056;-50
2021/06/11 01:41:25;;;;;;;15.82;11.30;;;;;;;21.21;59.07;101886.97;5075374;28;20036;-51
2021/06/11 01:43:54;;;;;;;15.57;11.38;;;;;;;21.13;59.31;101882.16;5077789;28;20056;-51
2021/06/11 01:46:23;;;;;;;18.67;11.02;;;;;;;21.04;59.58;101889.59;5073637;28;20086;-50
2021/06/11 01:48:51;;;;;;;15.35;11.55;;;;;;;20.97;60.07;101887.28;5056478;28;20098;-48
2021/06/11 01:51:20;;;;;;;14.32;11.00;;;;;;;20.88;60.42;101893.84;5072157;28;20054;-51
2021/06/11 01:53:49;;;;;;;15.40;11.18;;;;;;;20.82;60.47;101887.59;5072737;28;20406;-48
2021/06/11 01:56:18;;;;;;;15.50;11.45;;;;;;;20.78;60.47;101890.19;5073137;28;20073;-53
2021/06/11 01:58:46;;;;;;;15.40;11.43;;;;;;;20.75;60.63;101887.22;5073174;28;20033;-50
2021/06/11 02:01:16;;;;;;;16.42;11.80;;;;;;;20.72;60.82;101888.66;5073159;28;20155;-49
2021/06/11 02:03:46;;;;;;;15.20;11.05;;;;;;;20.69;60.64;101875.44;5056523;28;20453;-48
2021/06/11 02:06:16;;;;;;;15.68;11.52;;;;;;;20.64;60.93;101881.09;5073193;28;20048;-48
2021/06/11 02:08:46;;;;;;;14.10;10.40;;;;;;;20.62;60.80;101880.56;5073614;28;20066;-49
2021/06/11 02:11:14;;;;;;;16.20;10.90;;;;;;;20.59;60.83;101878.44;5072422;28;20495;-48
2021/06/11 02:13:43;;;;;;;14.77;10.32;;;;;;;20.55;60.76;101872.69;5072294;28;20052;-54
2021/06/11 02:16:12;;;;;;;13.20;9.52;;;;;;;20.52;60.82;101878.81;5072615;28;20044;-48
2021/06/11 02:18:40;;;;;;;15.13;10.10;;;;;;;20.48;60.75;101880.56;5052836;28;20071;-48
2021/06/11 02:21:09;;;;;;;13.95;9.30;;;;;;;20.42;61.03;101871.56;5073591;28;20049;-52
2021/06/11 02:23:37;;;;;;;14.57;9.18;;;;;;;20.37;61.31;101877.19;5073407;28;20048;-50
2021/06/11 02:26:06;;;;;;;13.30;9.75;;;;;;;20.35;61.26;101868.38;5074781;28;20559;-54
2021/06/11 02:28:33;;;;;;;12.25;9.45;;;;;;;20.34;61.37;101869.50;5075303;28;20064;-51
2021/06/11 02:31:01;;;;;;;12.57;9.27;;;;;;;20.33;61.39;101865.09;5077182;28;20086;-48
2021/06/11 02:33:29;;;;;;;13.35;8.82;;;;;;;20.32;61.38;101863.44;5077953;28;20041;-50
2021/06/11 02:35:57;;;;;;;12.50;9.20;;;;;;;20.27;61.54;101863.53;5076379;28;20101;-49
2021/06/11 02:38:25;;;;;;;12.00;8.43;;;;;;;20.22;61.53;101860.88;5074603;28;20036;-51
2021/06/11 02:40:55;;;;;;;14.73;8.40;;;;;;;20.23;61.46;101854.25;5073458;28;20563;-49
2021/06/11 02:43:24;;;;;;;12.07;8.38;;;;;;;20.26;61.37;101861.91;5072123;28;20033;-50
2021/06/11 02:46:16;;;;;;;11.23;7.75;;;;;;;20.27;61.02;101858.00;5072135;28;20060;-49
2021/06/11 02:48:57;;;;;;;12.40;8.38;;;;;;;20.23;61.26;101859.78;5058956;28;20044;-47
2021/06/11 02:51:44;;;;;;;12.45;8.50;;;;;;;20.24;61.03;101855.06;5055489;28;20775;-50
2021/06/11 02:54:27;;;;;;;10.50;7.70;;;;;;;20.20;61.12;101858.44;5056436;28;20056;-47
2021/06/11 02:57:18;;;;;;;12.38;8.20;;;;;;;20.17;61.25;101855.47;5067859;28;20440;-51
2021/06/11 02:59:49;;;;;;;11.85;8.23;;;;;;;20.16;61.44;101859.38;5071557;28;20045;-50
2021/06/11 03:03:05;;;;;;;12.25;7.78;;;;;;;20.16;61.28;101859.38;5071691;28;20045;-48
2021/06/11 03:05:33;;;;;;;12.55;8.25;;;;;;;20.15;61.33;101855.75;5030387;28;20770;-48
2021/06/11 03:08:05;;;;;;;14.45;7.70;;;;;;;20.13;61.19;101855.28;5014150;28;20056;-51
2021/06/11 03:10:34;;;;;;;11.65;7.35;;;;;;;20.12;61.11;101850.03;5030547;28;20506;-52
2021/06/11 03:13:03;;;;;;;11.73;7.57;;;;;;;20.13;61.34;101843.34;5014144;28;20080;-46
2021/06/11 03:15:33;;;;;;;9.68;7.20;;;;;;;20.14;61.18;101843.06;5014289;28;20451;-45
2021/06/11 03:18:05;;;;;;;10.43;6.68;;;;;;;20.16;60.96;101831.69;5013270;28;20551;-50
2021/06/11 03:20:36;;;;;;;11.23;6.88;;;;;;;20.20;60.87;101835.47;5030317;28;20508;-50
2021/06/11 03:23:14;;;;;;;10.27;6.30;;;;;;;20.20;60.91;101836.31;5013912;28;20131;-49
2021/06/11 03:25:49;;;;;;;10.13;6.72;;;;;;;20.20;60.83;101825.25;5014079;28;20076;-48
2021/06/11 03:28:19;;;;;;;10.00;6.82;;;;;;;20.20;60.79;101836.31;5013783;28;20459;-50
2021/06/11 03:30:55;;;;;;;11.57;7.35;;;;;;;20.14;60.95;101828.41;5030313;28;20076;-48
2021/06/11 03:33:27;;;;;;;;;;;;;;;20.15;60.61;101824.50;5013870;28;20049;-50
2021/06/11 03:36:45;;;;;;;8.55;6.40;;;;;;;20.10;60.93;101824.63;5030122;28;19987;-49
2021/06/11 03:39:34;;;;;;;9.93;6.55;;;;;;;20.05;61.20;101814.47;4951501;29;20098;-50
2021/06/11 03:42:04;;;;;;;9.23;6.18;;;;;;;20.06;61.10;101816.13;4953531;28;20047;-49
2021/06/11 03:44:32;;;;;;;10.32;6.30;;;;;;;20.07;61.37;101822.47;4951876;29;20098;-49
2021/06/11 03:47:01;;;;;;;11.15;6.47;;;;;;;20.08;61.37;101824.09;4966151;28;20047;-51
2021/06/11 03:49:28;;;;;;;10.88;7.03;;;;;;;20.05;61.46;101825.53;4951765;29;20529;-49
2021/06/11 03:51:56;;;;;;;9.23;6.47;;;;;;;20.05;61.47;101822.78;4965275;28;20046;-48
2021/06/11 03:54:25;;;;;;;9.90;6.65;;;;;;;20.06;61.23;101820.81;4971215;28;20053;-50
2021/06/11 03:56:53;;;;;;;9.15;6.20;;;;;;;20.08;61.16;101818.56;4951846;29;20086;-48
2021/06/11 03:59:23;;;;;;;9.40;6.05;;;;;;;20.08;61.24;101816.63;4969018;28;20502;-48
2021/06/11 04:01:51;;;;;;;7.95;5.55;;;;;;;20.10;61.02;101816.31;4970742;28;20047;-51
2021/06/11 04:04:19;;;;;;;8.60;6.18;;;;;;;20.13;61.11;101812.91;4954216;28;20079;-51
2021/06/11 04:07:00;;;;;;;9.50;5.85;;;;;;;20.12;60.87;101814.88;4955170;28;20074;-51
2021/06/11 04:09:30;;;;;;;8.90;6.20;;;;;;;20.12;61.06;101811.28;4954598;28;20047;-51
2021/06/11 04:12:08;;;;;;;7.82;5.55;;;;;;;20.11;60.92;101817.97;4952023;29;20047;-47
2021/06/11 04:14:42;;;;;;;9.35;5.75;;;;;;;20.12;60.84;101819.59;4988850;28;20048;-49
2021/06/11 04:17:12;;;;;;;8.60;5.70;;;;;;;20.11;60.90;101817.97;5070855;28;20052;-52
2021/06/11 04:19:54;;;;;;;8.52;6.07;;;;;;;20.07;60.82;101816.94;5071516;28;20090;-49
2021/06/11 04:22:29;;;;;;;10.63;6.20;;;;;;;20.05;61.00;101824.72;5072539;28;20048;-50
2021/06/11 04:24:59;;;;;;;10.52;6.68;;;;;;;20.01;61.27;101830.03;5070950;28;20078;-52
2021/06/11 04:27:28;;;;;;;11.70;6.53;;;;;;;19.99;61.65;101832.31;5072824;28;20078;-49
2021/06/11 04:29:56;;;;;;;11.35;6.70;;;;;;;19.94;61.57;101836.00;5070890;28;20044;-51
2021/06/11 04:32:23;;;;;;;13.60;6.88;;;;;;;19.92;61.56;101832.72;5071861;28;20499;-51
2021/06/11 04:34:55;;;;;;;10.77;6.95;;;;;;;19.83;61.96;101842.03;5071564;28;20040;-51
2021/06/11 04:37:23;;;;;;;12.07;7.50;;;;;;;19.76;62.38;101845.19;5071637;28;20044;-50
2021/06/11 04:39:51;;;;;;;11.20;6.88;;;;;;;19.77;62.58;101852.34;5070366;28;20491;-50
2021/06/11 04:42:19;;;;;;;13.57;8.43;;;;;;;19.76;62.59;101859.03;5071678;28;20044;-49
2021/06/11 04:44:47;;;;;;;13.85;8.35;;;;;;;19.71;62.46;101861.88;5071559;28;20090;-50
2021/06/11 04:47:14;;;;;;;13.27;7.75;;;;;;;19.69;62.85;101861.38;5071086;28;20044;-50
2021/06/11 04:49:42;;;;;;;12.48;7.75;;;;;;;19.68;63.14;101865.28;5071893;28;20041;-48
2021/06/11 04:52:10;;;;;;;10.27;6.78;;;;;;;19.69;62.93;101859.41;5071186;28;20094;-48
2021/06/11 04:54:37;;;;;;;14.48;7.78;;;;;;;19.66;63.39;101850.88;5072392;28;20047;-49
2021/06/11 04:57:06;;;;;;;12.88;6.72;;;;;;;19.69;63.36;101850.31;5075225;28;20048;-48
2021/06/11 04:59:33;;;;;;;12.60;7.70;;;;;;;19.73;63.30;101859.63;5074706;28;20044;-51
2021/06/11 05:02:01;;;;;;;12.52;7.95;;;;;;;19.72;63.32;101866.28;5074777;28;20080;-52
2021/06/11 05:04:29;;;;;;;11.80;7.93;;;;;;;19.69;63.55;101866.91;5075098;28;20102;-49
2021/06/11 05:06:59;;;;;;;14.75;8.18;;;;;;;19.66;63.89;101867.47;5075075;28;20052;-51
2021/06/11 05:09:27;;;;;;;13.10;7.97;;;;;;;19.67;64.07;101866.34;5075022;28;20098;-50
2021/06/11 05:11:55;;;;;;;12.98;7.90;;;;;;;19.64;64.29;101864.19;5075132;28;20093;-50
2021/06/11 05:14:22;;;;;;;13.90;7.63;;;;;;;19.64;64.38;101869.72;5074483;28;20048;-50
2021/06/11 05:16:50;;;;;;;11.55;7.95;;;;;;;19.65;64.45;101872.19;5074357;28;20048;-50
2021/06/11 05:19:18;;;;;;;12.02;8.13;;;;;;;19.61;64.59;101871.16;5074951;28;20510;-51
2021/06/11 05:21:46;;;;;;;12.93;7.00;;;;;;;19.57;64.87;101867.34;5060639;28;20076;-51
2021/06/11 05:24:13;;;;;;;10.48;6.50;;;;;;;19.64;64.42;101869.72;5074462;28;20052;-49
2021/06/11 05:26:41;;;;;;;14.63;9.23;;;;;;;19.62;65.06;101875.53;5067953;28;20078;-53
2021/06/11 05:29:08;;;;;;;15.15;8.05;;;;;;;19.56;65.16;101863.78;5074475;28;20719;-51
2021/06/11 05:31:36;;;;;;;10.90;6.65;;;;;;;19.58;65.00;101872.59;5073071;28;20139;-49
2021/06/11 05:34:04;;;;;;;14.07;8.57;;;;;;;19.62;65.03;101871.97;5073431;28;20041;-51
2021/06/11 05:36:32;;;;;;;12.57;7.43;;;;;;;19.63;64.66;101873.63;5073760;28;20040;-52
2021/06/11 05:38:59;;;;;;;12.95;8.23;;;;;;;19.61;65.23;101881.41;5074352;28;20037;-50
2021/06/11 05:41:27;;;;;;;14.50;7.88;;;;;;;19.61;64.92;101881.41;5074069;28;20052;-50
2021/06/11 05:43:55;;;;;;;14.88;9.50;;;;;;;19.61;65.01;101886.94;5073567;28;20040;-50
2021/06/11 05:46:26;;;;;;;15.25;9.43;;;;;;;19.52;65.27;101895.09;5074194;28;20037;-52
2021/06/11 05:48:54;;;;;;;14.45;9.70;;;;;;;19.42;65.65;101896.06;5074005;28;20126;-52
2021/06/11 05:51:22;;;;;;;18.25;10.05;;;;;;;19.21;66.50;101889.22;5074357;28;20469;-54
2021/06/11 05:53:49;;;;;;;14.88;9.70;;;;;;;19.18;66.79;101893.44;5073665;28;20090;-54
2021/06/11 05:56:17;;;;;;;15.02;9.52;;;;;;;19.29;66.54;101891.31;5074196;28;20059;-49
2021/06/11 05:58:46;;;;;;;14.88;9.23;;;;;;;19.26;66.88;101895.50;5073795;28;20052;-49
2021/06/11 06:01:14;;;;;;;15.02;9.85;;;;;;;19.26;66.76;101889.16;5073861;28;20032;-53
2021/06/11 06:03:42;;;;;;;15.18;9.80;;;;;;;19.26;66.70;101887.19;5056179;28;20052;-50
2021/06/11 06:06:10;;;;;;;17.30;10.30;;;;;;;19.31;66.75;101883.53;5073577;28;20045;-49
2021/06/11 06:08:37;;;;;;;14.55;9.27;;;;;;;19.37;66.57;101882.34;5073868;28;20079;-49
2021/06/11 06:11:05;;;;;;;16.13;10.15;;;;;;;19.44;66.58;101879.19;5073986;28;20049;-47
2021/06/11 06:13:33;;;;;;;15.20;7.57;;;;;;;19.58;65.72;101882.81;5073931;28;20044;-50
2021/06/11 06:16:00;;;;;;;14.13;9.13;;;;;;;19.59;66.17;101878.94;5074075;28;20049;-52
2021/06/11 06:18:28;;;;;;;17.38;10.55;;;;;;;19.56;65.76;101880.34;5073253;28;20084;-54
2021/06/11 06:20:56;;;;;;;15.43;9.95;;;;;;;19.60;65.51;101880.56;5073910;28;20490;-53
2021/06/11 06:23:23;;;;;;;17.05;10.32;;;;;;;19.57;65.74;101881.97;5073476;28;20036;-51
2021/06/11 06:25:51;;;;;;;15.85;10.20;;;;;;;19.54;65.86;101879.84;5073776;28;20064;-52
2021/06/11 06:28:18;;;;;;;18.90;10.27;;;;;;;19.57;65.82;101887.50;5073242;28;20086;-52
2021/06/11 06:30:46;;;;;;;18.17;10.05;;;;;;;19.53;65.89;101892.03;5074062;28;20068;-55
2021/06/11 06:33:14;;;;;;;17.88;10.55;;;;;;;19.46;66.00;101894.34;5073321;28;20135;-51
2021/06/11 06:35:41;;;;;;;17.75;10.80;;;;;;;19.46;66.13;101891.59;5073793;28;20053;-53
2021/06/11 06:38:11;;;;;;;15.43;9.70;;;;;;;19.54;65.96;101885.38;5073659;28;20075;-52
2021/06/11 06:40:45;;;;;;;23.80;11.32;;;;;;;19.61;65.77;101889.69;5073218;28;20063;-56
2021/06/11 06:43:13;;;;;;;20.73;11.70;;;;;;;19.54;66.15;101892.84;5073148;28;20100;-54
2021/06/11 06:45:41;;;;;;;22.75;12.23;;;;;;;19.50;66.36;101898.13;5072985;28;20067;-52
2021/06/11 06:48:09;;;;;;;20.77;11.55;;;;;;;19.47;66.40;101900.69;5073315;28;20057;-52
2021/06/11 06:50:36;;;;;;;20.30;9.43;;;;;;;19.44;66.24;101893.84;5073000;28;20041;-54
2021/06/11 06:53:05;;;;;;;19.50;9.50;;;;;;;19.46;66.12;101899.88;5073417;28;20048;-51
2021/06/11 06:55:33;;;;;;;16.75;9.77;;;;;;;19.56;65.96;101896.13;5073094;28;20041;-53
2021/06/11 06:58:00;;;;;;;20.27;11.63;;;;;;;19.58;66.11;101886.41;5073210;28;20025;-52
2021/06/11 07:00:28;;;;;;;19.23;11.02;;;;;;;19.65;65.79;101890.72;5073588;28;20071;-51
2021/06/11 07:02:56;;;;;;;17.33;10.65;;;;;;;19.62;66.36;101891.31;5072623;28;20036;-54
2021/06/11 07:05:24;;;;;;;17.73;10.93;;;;;;;19.66;66.33;101882.13;5073297;28;20407;-50
2021/06/11 07:07:51;;;;;;;20.13;11.52;;;;;;;19.73;66.18;101893.63;5073166;28;20049;-51
2021/06/11 07:10:20;;;;;;;19.88;9.23;;;;;;;19.79;66.11;101888.81;5072260;28;20055;-49
2021/06/11 07:12:48;;;;;;;19.33;11.32;;;;;;;19.93;64.71;101895.19;5072316;28;20063;-50
2021/06/11 07:15:16;;;;;;;27.25;10.35;;;;;;;20.04;62.74;101889.50;5072521;28;20032;-53
2021/06/11 07:17:44;;;;;;;26.77;10.68;;;;;;;20.14;63.50;101889.28;5053382;28;20060;-50
2021/06/11 07:20:12;;;;;;;17.33;10.98;;;;;;;20.16;64.57;101898.09;5073930;28;20091;-52
2021/06/11 07:22:39;;;;;;;22.65;11.90;;;;;;;20.04;64.68;101895.03;5077196;28;20506;-52
2021/06/11 07:25:07;;;;;;;17.88;10.13;;;;;;;20.02;64.95;101892.56;5077028;28;20044;-52
2021/06/11 07:27:35;;;;;;;18.23;9.65;;;;;;;20.11;64.13;101892.69;5072023;28;20061;-52
2021/06/11 07:30:08;;;;;;;20.85;11.50;;;;;;;20.14;64.57;101897.59;5072212;28;20094;-52
2021/06/11 07:32:42;;;;;;;18.95;10.07;;;;;;;20.07;64.44;101905.47;5054437;28;20048;-50
2021/06/11 07:35:12;;;;;;;17.70;10.10;;;;;;;20.04;64.66;101900.56;5082990;28;20565;-50
2021/06/11 07:37:40;;;;;;;19.23;10.93;;;;;;;19.99;64.43;101910.59;5085811;28;20055;-50
2021/06/11 07:40:10;;;;;;;20.73;11.18;;;;;;;19.99;64.44;101910.59;5078669;28;20040;-50
2021/06/11 07:42:37;;;;;;;14.68;7.22;;;;;;;20.09;63.87;101908.75;5054762;28;20439;-49
2021/06/11 07:45:06;;;;;;;29.08;10.73;;;;;;;20.20;62.89;101901.88;5072950;28;20090;-50
2021/06/11 07:47:35;;;;;;;20.80;10.35;;;;;;;20.28;62.95;101906.72;5072859;28;20102;-51
2021/06/11 07:50:06;;;;;;;22.33;10.60;;;;;;;20.39;62.96;101901.78;5072760;28;20090;-50
2021/06/11 07:52:37;;;;;;;21.02;10.02;;;;;;;20.43;63.07;101903.63;5072477;28;20507;-47
2021/06/11 07:55:05;;;;;;;20.02;9.38;;;;;;;20.40;62.99;101904.25;5029218;28;20137;-48
2021/06/11 07:57:33;;;;;;;18.92;10.43;;;;;;;20.38;63.39;101898.19;4916927;28;20103;-48
2021/06/11 08:00:01;;;;;;;15.23;9.13;;;;;;;20.36;63.40;101911.53;5072161;28;20093;-50
2021/06/11 08:02:41;;;;;;;14.90;9.25;;;;;;;20.32;63.09;101907.72;5077464;28;20087;-49
2021/06/11 08:05:12;;;;;;;16.73;9.00;;;;;;;20.30;63.25;101898.09;5080416;28;20128;-49
2021/06/11 08:07:40;;;;;;;15.32;9.73;;;;;;;20.32;63.22;101904.16;5076702;28;20106;-48
2021/06/11 08:10:08;;;;;;;17.08;9.50;;;;;;;20.34;63.63;101902.69;5072616;28;20040;-49
2021/06/11 08:12:35;;;;;;;18.63;9.27;;;;;;;20.40;62.93;101907.03;5054522;28;20458;-49
2021/06/11 08:15:05;;;;;;;17.70;9.75;;;;;;;20.41;62.63;101894.81;5072424;28;20380;-51
2021/06/11 08:17:35;;;;;;;13.77;5.93;;;;;;;20.45;62.40;101895.03;5069438;28;20402;-50
2021/06/11 08:20:07;;;;;;;19.48;9.07;;;;;;;20.51;61.70;101898.50;5047163;28;20044;-49
2021/06/11 08:22:37;;;;;;;14.82;9.63;;;;;;;20.51;62.49;101895.72;5051994;28;20041;-50
2021/06/11 08:25:09;;;;;;;19.80;8.52;;;;;;;20.51;62.12;101896.53;5051754;28;20404;-50
2021/06/11 08:27:41;;;;;;;12.60;8.10;;;;;;;20.51;61.33;101901.25;5051892;28;20053;-52
2021/06/11 08:30:10;;;;;;;13.43;7.13;;;;;;;20.55;61.46;101894.00;5055126;28;20541;-51
2021/06/11 08:32:53;;;;;;;14.50;7.78;;;;;;;20.58;61.54;101896.16;5055353;28;20073;-51
2021/06/11 08:35:21;;;;;;;16.98;8.48;;;;;;;20.63;61.90;101896.03;5051337;28;20084;-48
2021/06/11 08:37:49;;;;;;;17.67;8.45;;;;;;;20.65;61.52;101899.34;5055141;28;20037;-50
2021/06/11 08:40:17;;;;;;;12.82;7.55;;;;;;;20.68;61.56;101901.47;5055451;28;20045;-51
2021/06/11 08:42:46;;;;;;;15.27;8.85;;;;;;;20.71;61.63;101902.81;5055708;28;20059;-48
2021/06/11 08:45:14;;;;;;;16.50;7.53;;;;;;;20.74;61.09;101897.47;5055962;28;20551;-56
2021/06/11 08:47:49;;;;;;;12.55;7.45;;;;;;;20.79;60.92;101900.13;5055195;28;20415;-53
2021/06/11 08:50:29;;;;;;;13.35;8.02;;;;;;;20.83;60.60;101889.25;5037924;28;20052;-51
2021/06/11 08:52:58;;;;;;;12.35;6.53;;;;;;;20.85;60.49;101898.91;5055574;28;20045;-50
2021/06/11 08:55:27;;;;;;;14.98;8.30;;;;;;;20.91;60.90;101896.00;5055765;28;20086;-51
2021/06/11 08:57:55;;;;;;;15.27;8.07;;;;;;;20.98;60.70;101896.41;5049858;28;20477;-49
2021/06/11 09:00:23;;;;;;;13.60;8.30;;;;;;;21.03;60.11;101893.50;5048218;28;20090;-50
2021/06/11 09:03:35;;;;;;;12.15;7.35;;;;;;;21.10;59.95;101887.53;5055368;28;20565;-52
2021/06/11 09:06:05;;;;;;;14.82;6.60;;;;;;;21.18;59.41;101895.09;5055699;28;20733;-55
2021/06/11 09:08:36;;;;;;;12.70;5.97;;;;;;;21.20;58.88;101892.81;5055077;28;20053;-50
2021/06/11 09:11:17;;;;;;;10.35;6.13;;;;;;;21.25;58.63;101895.47;5036527;28;20045;-50
2021/06/11 09:13:48;;;;;;;12.85;7.28;;;;;;;21.20;58.63;101896.41;5056068;28;20132;-52
2021/06/11 09:16:16;;;;;;;11.48;6.35;;;;;;;21.20;58.54;101884.50;5055757;28;20051;-52
2021/06/11 09:18:48;;;;;;;11.32;5.85;;;;;;;21.30;58.43;101891.75;5067195;28;20538;-48
2021/06/11 09:21:30;;;;;;;12.90;6.68;;;;;;;21.37;58.61;101887.41;5074708;28;20057;-53
2021/06/11 09:24:19;;;;;;;9.52;6.20;;;;;;;21.44;58.52;101892.53;5075600;28;20071;-50
2021/06/11 09:27:01;;;;;;;14.63;7.25;;;;;;;21.40;58.28;101897.88;5076097;28;20086;-49
2021/06/11 09:29:33;;;;;;;17.30;6.60;;;;;;;21.34;58.33;101882.50;5078684;28;20071;-49
2021/06/11 09:32:22;;;;;;;11.18;6.15;;;;;;;21.36;58.40;101884.94;5069236;28;20487;-50
2021/06/11 09:35:12;;;;;;;11.65;6.38;;;;;;;21.45;57.95;101891.41;5082216;28;20381;-47
2021/06/11 09:37:40;;;;;;;11.40;7.40;;;;;;;21.47;57.38;101886.34;5082513;28;20041;-47
2021/06/11 09:40:10;;;;;;;12.45;6.68;;;;;;;21.52;57.92;101883.44;5081139;28;20071;-49
2021/06/11 09:42:47;;;;;;;13.27;7.32;;;;;;;21.62;58.04;101883.22;5082581;28;20063;-55
2021/06/11 09:45:21;;;;;;;9.52;5.18;;;;;;;21.67;57.51;101885.00;5078316;28;20032;-52
2021/06/11 09:47:53;;;;;;;13.38;6.53;;;;;;;21.64;57.09;101880.91;5078559;28;20045;-47
2021/06/11 09:50:33;;;;;;;12.65;7.10;;;;;;;21.66;57.37;101880.59;5079296;28;20024;-49
2021/06/11 09:53:11;;;;;;;13.75;6.97;;;;;;;21.69;56.70;101889.13;5081427;28;20048;-48
2021/06/11 09:55:42;;;;;;;11.77;6.40;;;;;;;21.74;56.59;101879.81;5082018;28;20036;-50
2021/06/11 09:58:20;;;;;;;12.65;7.47;;;;;;;21.75;56.07;101886.22;5082475;28;20041;-56
2021/06/11 10:00:54;;;;;;;12.93;7.35;;;;;;;21.75;56.25;101881.47;5082508;28;20056;-50
2021/06/11 10:03:35;;;;;;;11.52;7.15;;;;;;;21.81;56.32;101879.38;5081661;28;20041;-50
2021/06/11 10:06:04;;;;;;;10.85;6.13;;;;;;;21.85;56.18;101874.84;5080814;28;20478;-49
2021/06/11 10:08:32;;;;;;;12.43;7.40;;;;;;;21.83;56.39;101874.31;5060530;28;20408;-50
2021/06/11 10:11:05;;;;;;;13.18;5.68;;;;;;;21.88;56.73;101875.00;5078111;28;20041;-50
2021/06/11 10:13:34;;;;;;;16.20;8.35;;;;;;;21.95;56.47;101863.44;5082179;28;20407;-50
2021/06/11 10:16:07;;;;;;;10.82;6.90;;;;;;;22.00;56.42;101860.53;5080481;28;20040;-52
2021/06/11 10:18:35;;;;;;;9.25;5.10;;;;;;;22.05;55.96;101868.69;5080535;28;20052;-49
2021/06/11 10:21:04;;;;;;;14.80;8.30;;;;;;;22.08;55.56;101861.69;5058365;28;20045;-50
2021/06/11 10:23:33;;;;;;;12.77;7.40;;;;;;;22.12;55.36;101877.38;5079979;28;20048;-50
2021/06/11 10:26:03;;;;;;;14.70;8.05;;;;;;;22.15;54.39;101866.78;5081189;28;20454;-49
2021/06/11 10:28:41;;;;;;;15.18;7.55;;;;;;;22.16;54.30;101871.22;5081240;28;20071;-51
2021/06/11 10:31:11;;;;;;;14.30;7.82;;;;;;;22.16;54.39;101862.88;5078703;28;20868;-52
2021/06/11 10:33:46;;;;;;;15.35;8.45;;;;;;;22.19;54.10;101862.22;5045108;28;20106;-50
2021/06/11 10:36:30;;;;;;;17.88;10.20;;;;;;;22.23;54.31;101857.72;5076640;28;20048;-51
2021/06/11 10:39:10;;;;;;;31.95;20.95;;;;;;;22.30;54.97;101855.28;5064242;28;20048;-49
2021/06/11 10:41:57;;;;;;;87.93;55.95;;;;;;;22.42;55.42;101847.16;5075242;28;20094;-50
2021/06/11 10:44:31;;;;;;;57.58;36.90;;;;;;;22.51;54.91;101847.13;5075559;28;20040;-50
2021/06/11 10:47:17;;;;;;;52.55;33.10;;;;;;;22.59;54.87;101843.56;5078579;28;20033;-50
2021/06/11 10:52:44;;;;;;;22.95;13.63;;;;;;;22.62;53.64;101848.47;5068541;28;19927;-48
2021/06/11 10:55:15;;;;;;;124.25;78.07;;;;;;;22.65;53.82;101833.13;5080590;28;20049;-54
2021/06/11 10:57:43;;;;;;;20.60;10.73;;;;;;;22.71;52.63;101845.72;5080591;28;20127;-50
2021/06/11 11:00:41;;;;;;;19.00;10.98;;;;;;;22.76;52.35;101843.59;5079601;28;20082;-49
2021/06/11 11:03:24;;;;;;;43.33;25.98;;;;;;;22.81;52.50;101845.38;5016955;28;20053;-50
2021/06/11 11:05:52;;;;;;;16.52;9.73;;;;;;;22.88;51.20;101828.22;5017640;28;20346;-51
2021/06/11 11:08:20;;;;;;;85.18;48.92;;;;;;;22.93;52.19;101826.09;5017641;28;20076;-49
2021/06/11 11:10:51;;;;;;;25.58;13.40;;;;;;;23.02;51.22;101836.41;5016682;28;20046;-51
2021/06/11 11:13:19;;;;;;;20.48;10.00;;;;;;;23.08;50.92;101833.13;5017216;28;20149;-49
2021/06/11 11:15:48;;;;;;;37.60;23.17;;;;;;;23.12;51.71;101828.56;5017980;28;20042;-51
2021/06/11 11:18:24;;;;;;;22.25;12.75;;;;;;;23.16;50.71;101829.53;5017090;28;20058;-50
2021/06/11 11:20:52;;;;;;;33.47;19.75;;;;;;;23.22;50.65;101826.59;5017336;28;20049;-50
2021/06/11 11:23:23;;;;;;;45.20;27.63;;;;;;;23.23;51.10;101820.69;5016784;28;20046;-48
2021/06/11 11:25:51;;;;;;;47.15;27.52;;;;;;;23.26;52.19;101817.25;5016216;28;20061;-54
2021/06/11 11:28:20;;;;;;;77.82;40.90;;;;;;;23.29;53.60;101816.59;5016838;28;20049;-50
2021/06/11 11:30:48;;;;;;;22.75;12.40;;;;;;;23.31;50.10;101819.88;5015930;28;20105;-50
2021/06/11 11:33:17;;;;;;;14.30;7.13;;;;;;;23.32;49.58;101815.91;5014993;28;20045;-48
2021/06/11 11:35:46;;;;;;;16.88;8.02;;;;;;;23.37;49.52;101826.88;5000324;28;20468;-57